createdAt,value
2019-02-26T00:02:26.096Z,25.33
2019-02-26T00:04:58.566Z,31.03
2019-02-26T00:07:30.442Z,36.40
2019-02-26T00:10:04.543Z,24.77
2019-02-26T00:12:35.586Z,33.90
2019-02-26T00:15:11.286Z,23.03
2019-02-26T00:17:43.721Z,34.37
2019-02-26T00:20:15.057Z,24.10
2019-02-26T00:22:44.395Z,20.20
2019-02-26T00:25:15.332Z,38.17
2019-02-26T00:27:47.161Z,36.10
2019-02-26T00:30:18.629Z,26.50
2019-02-26T00:32:48.639Z,28.30
2019-02-26T00:35:20.654Z,25.23
2019-02-26T00:37:51.113Z,25.77
2019-02-26T00:40:21.355Z,32.20
2019-02-26T00:42:54.376Z,22.07
2019-02-26T00:45:26.953Z,24.60
2019-02-26T00:47:54.278Z,34.20
2019-02-26T00:50:24.104Z,21.30
2019-02-26T00:52:55.276Z,25.50
2019-02-26T00:55:27.436Z,33.57
2019-02-26T00:57:57.043Z,26.60
2019-02-26T01:00:29.169Z,29.33
2019-02-26T01:03:01.417Z,20.07
2019-02-26T01:05:31.289Z,36.77
2019-02-26T01:08:01.095Z,23.90
2019-02-26T01:10:30.953Z,37.03
2019-02-26T01:13:01.454Z,24.80
2019-02-26T01:15:33.110Z,30.97
2019-02-26T01:18:05.478Z,34.33
2019-02-26T01:20:34.699Z,29.90
2019-02-26T01:23:04.524Z,38.37
2019-02-26T01:25:38.265Z,32.23
2019-02-26T01:28:05.792Z,32.17
2019-02-26T01:30:36.208Z,30.90
2019-02-26T01:33:07.996Z,35.57
2019-02-26T01:35:37.863Z,26.40
2019-02-26T01:38:08.038Z,27.30
2019-02-26T01:40:41.501Z,29.10
2019-02-26T01:43:09.038Z,23.53
2019-02-26T01:45:39.024Z,34.77
2019-02-26T01:48:11.434Z,31.67
2019-02-26T01:50:40.746Z,33.80
2019-02-26T01:53:12.025Z,34.50
2019-02-26T01:55:43.679Z,33.07
2019-02-26T01:58:15.894Z,39.40
2019-02-26T02:00:44.505Z,24.97
2019-02-26T02:03:14.562Z,37.80
2019-02-26T02:05:45.825Z,36.60
2019-02-26T02:08:17.793Z,24.10
2019-02-26T02:10:47.109Z,24.03
2019-02-26T02:13:16.780Z,26.63
2019-02-26T02:15:46.608Z,27.60
2019-02-26T02:18:18.102Z,30.80
2019-02-26T02:20:49.441Z,33.00
2019-02-26T02:23:21.254Z,23.77
2019-02-26T02:25:52.378Z,29.27
2019-02-26T02:28:24.000Z,37.90
2019-02-26T02:30:55.323Z,30.17
2019-02-26T02:33:27.431Z,39.90
2019-02-26T02:35:58.017Z,22.57
2019-02-26T02:38:28.509Z,23.83
2019-02-26T02:40:58.909Z,29.37
2019-02-26T02:43:29.555Z,30.03
2019-02-26T02:46:01.359Z,36.33
2019-02-26T02:48:31.699Z,37.60
2019-02-26T02:51:05.233Z,36.20
2019-02-26T02:53:34.484Z,23.07
2019-02-26T02:56:06.380Z,30.40
2019-02-26T02:58:38.600Z,38.63
2019-02-26T03:01:08.779Z,24.70
2019-02-26T03:03:38.782Z,30.63
2019-02-26T03:06:09.699Z,35.47
2019-02-26T03:08:42.230Z,34.47
2019-02-26T03:11:13.210Z,39.83
2019-02-26T03:13:45.731Z,26.83
2019-02-26T03:16:16.816Z,37.43
2019-02-26T03:18:48.024Z,35.07
2019-02-26T03:21:20.179Z,28.17
2019-02-26T03:23:50.605Z,31.80
2019-02-26T03:26:22.831Z,31.60
2019-02-26T03:28:53.315Z,25.97
2019-02-26T03:31:28.701Z,29.73
2019-02-26T03:33:59.910Z,32.57
2019-02-26T03:36:26.354Z,34.20
2019-02-26T03:38:57.273Z,46.97
2019-02-26T03:41:28.813Z,38.30
2019-02-26T03:44:00.694Z,30.83
2019-02-26T03:46:30.131Z,40.93
2019-02-26T03:49:02.430Z,44.50
2019-02-26T03:51:31.364Z,28.80
2019-02-26T03:54:01.128Z,30.67
2019-02-26T03:56:31.245Z,42.20
2019-02-26T03:59:05.736Z,26.10
2019-02-26T04:01:32.689Z,40.90
2019-02-26T04:04:03.011Z,35.27
2019-02-26T04:06:36.010Z,43.47
2019-02-26T04:09:08.519Z,36.40
2019-02-26T04:11:39.328Z,44.83
2019-02-26T04:14:12.164Z,40.60
2019-02-26T04:16:43.430Z,31.37
2019-02-26T04:19:12.279Z,40.27
2019-02-26T04:22:20.924Z,36.80
2019-02-26T04:24:50.047Z,48.83
2019-02-26T04:27:49.649Z,43.17
2019-02-26T04:30:52.433Z,39.00
2019-02-26T04:34:04.378Z,48.90
2019-02-26T04:36:53.523Z,28.47
2019-02-26T04:39:42.935Z,25.97
2019-02-26T04:42:25.103Z,30.73
2019-02-26T04:45:16.133Z,25.77
2019-02-26T04:47:54.856Z,43.97
2019-02-26T04:50:28.756Z,38.97
2019-02-26T04:52:58.306Z,43.37
2019-02-26T04:55:29.007Z,34.37
2019-02-26T04:57:58.486Z,31.77
2019-02-26T05:00:30.413Z,31.87
2019-02-26T05:02:59.880Z,39.03
2019-02-26T05:05:32.042Z,44.87
2019-02-26T05:08:00.933Z,25.73
2019-02-26T05:10:32.285Z,34.77
2019-02-26T05:13:03.940Z,42.60
2019-02-26T05:15:33.810Z,28.10
2019-02-26T05:18:03.489Z,37.47
2019-02-26T05:20:34.077Z,45.97
2019-02-26T05:23:06.328Z,28.23
2019-02-26T05:25:37.352Z,49.90
2019-02-26T05:28:11.408Z,44.50
2019-02-26T05:30:40.423Z,34.33
2019-02-26T05:33:10.661Z,44.47
2019-02-26T05:35:41.459Z,44.03
2019-02-26T05:38:11.696Z,39.10
2019-02-26T05:40:42.763Z,38.37
2019-02-26T05:43:13.102Z,35.70
2019-02-26T05:45:43.148Z,34.07
2019-02-26T05:48:15.333Z,40.90
2019-02-26T05:50:44.879Z,44.20
2019-02-26T05:53:14.618Z,46.40
2019-02-26T05:55:47.555Z,42.47
2019-02-26T05:58:18.613Z,46.07
2019-02-26T06:00:47.182Z,30.00
2019-02-26T06:03:18.720Z,44.67
2019-02-26T06:05:48.954Z,42.47
2019-02-26T06:08:19.474Z,53.00
2019-02-26T06:10:49.197Z,46.93
2019-02-26T06:13:19.020Z,46.23
2019-02-26T06:15:51.245Z,38.13
2019-02-26T06:18:21.004Z,48.73
2019-02-26T06:20:51.686Z,44.10
2019-02-26T06:23:23.199Z,87.13
2019-02-26T06:25:55.388Z,33.17
2019-02-26T06:28:24.726Z,29.60
2019-02-26T06:30:55.187Z,45.13
2019-02-26T06:33:25.350Z,42.93
2019-02-26T06:35:57.039Z,25.77
2019-02-26T06:38:28.615Z,40.80
2019-02-26T06:40:58.150Z,28.13
2019-02-26T06:43:28.028Z,44.83
2019-02-26T06:45:57.724Z,51.67
2019-02-26T06:48:29.674Z,47.03
2019-02-26T06:51:00.428Z,31.63
2019-02-26T06:53:30.312Z,58.50
2019-02-26T06:56:00.855Z,48.53
2019-02-26T06:58:31.077Z,49.20
2019-02-26T07:01:01.187Z,55.23
2019-02-26T07:03:30.804Z,34.87
2019-02-26T07:06:03.162Z,53.20
2019-02-26T07:08:31.862Z,42.57
2019-02-26T07:11:03.659Z,41.10
2019-02-26T07:13:36.882Z,51.90
2019-02-26T07:16:07.493Z,52.37
2019-02-26T07:18:37.449Z,55.07
2019-02-26T07:21:07.383Z,60.60
2019-02-26T07:23:38.189Z,58.73
2019-02-26T07:26:08.463Z,55.77
2019-02-26T07:28:39.685Z,57.03
2019-02-26T07:31:12.018Z,60.40
2019-02-26T07:33:41.105Z,32.33
2019-02-26T07:36:10.859Z,63.47
2019-02-26T07:38:41.531Z,50.67
2019-02-26T07:41:11.829Z,58.73
2019-02-26T07:43:44.104Z,59.83
2019-02-26T07:46:14.605Z,58.80
2019-02-26T07:48:46.157Z,58.60
2019-02-26T07:51:15.946Z,46.70
2019-02-26T07:53:50.575Z,55.87
2019-02-26T07:56:17.318Z,62.03
2019-02-26T07:58:47.043Z,66.40
2019-02-26T08:01:16.793Z,64.93
2019-02-26T08:03:48.695Z,65.03
2019-02-26T08:06:18.381Z,67.73
2019-02-26T08:08:48.952Z,30.60
2019-02-26T08:11:18.864Z,51.37
2019-02-26T08:13:49.472Z,61.60
2019-02-26T08:16:20.752Z,55.30
2019-02-26T08:18:52.194Z,55.67
2019-02-26T08:21:24.743Z,37.30
2019-02-26T08:23:54.186Z,54.00
2019-02-26T08:26:24.790Z,36.87
2019-02-26T08:28:55.594Z,60.27
2019-02-26T08:31:25.994Z,62.03
2019-02-26T08:33:56.830Z,59.43
2019-02-26T08:36:26.645Z,61.07
2019-02-26T08:38:57.265Z,55.47
2019-02-26T08:41:27.265Z,55.60
2019-02-26T08:44:00.312Z,49.50
2019-02-26T08:46:30.280Z,46.93
2019-02-26T08:49:08.048Z,58.27
2019-02-26T08:51:31.974Z,59.30
2019-02-26T08:54:01.729Z,47.87
2019-02-26T08:56:33.772Z,48.50
2019-02-26T08:59:03.629Z,44.40
2019-02-26T09:01:33.531Z,51.63
2019-02-26T09:04:03.327Z,45.73
2019-02-26T09:06:33.065Z,53.50
2019-02-26T09:09:04.555Z,54.13
2019-02-26T09:11:36.367Z,48.30
2019-02-26T09:14:07.124Z,36.30
2019-02-26T09:16:36.907Z,45.47
2019-02-26T09:19:06.799Z,43.27
2019-02-26T09:21:36.928Z,53.00
2019-02-26T09:24:08.042Z,56.17
2019-02-26T09:26:37.863Z,59.10
2019-02-26T09:29:07.491Z,46.90
2019-02-26T09:31:37.380Z,61.00
2019-02-26T09:34:07.143Z,44.13
2019-02-26T09:36:36.945Z,35.47
2019-02-26T09:39:08.737Z,59.50
2019-02-26T09:41:40.199Z,29.87
2019-02-26T09:44:11.631Z,47.70
2019-02-26T09:46:43.508Z,58.97
2019-02-26T09:49:12.669Z,52.40
2019-02-26T09:51:42.620Z,61.93
2019-02-26T09:54:14.669Z,60.00
2019-02-26T09:56:43.854Z,57.40
2019-02-26T09:59:14.789Z,52.43
2019-02-26T10:01:44.831Z,40.13
2019-02-26T10:04:14.551Z,59.10
2019-02-26T10:06:44.957Z,63.67
2019-02-26T10:09:17.973Z,61.10
2019-02-26T10:11:48.809Z,58.27
2019-02-26T10:14:18.264Z,65.33
2019-02-26T10:16:50.066Z,35.73
2019-02-26T10:19:19.594Z,34.17
2019-02-26T10:21:49.403Z,45.77
2019-02-26T10:24:22.975Z,50.17
2019-02-26T10:26:50.573Z,54.83
2019-02-26T10:29:20.411Z,42.33
2019-02-26T10:31:50.456Z,36.77
2019-02-26T10:34:20.848Z,65.00
2019-02-26T10:36:51.927Z,67.40
2019-02-26T10:39:23.725Z,55.07
2019-02-26T10:41:53.003Z,40.07
2019-02-26T10:44:22.753Z,62.57
2019-02-26T10:46:52.527Z,38.83
2019-02-26T10:49:22.319Z,63.03
2019-02-26T10:51:55.604Z,62.33
2019-02-26T10:54:25.036Z,52.70
2019-02-26T10:56:54.725Z,64.80
2019-02-26T10:59:24.487Z,70.37
2019-02-26T11:01:55.285Z,36.73
2019-02-26T11:04:34.500Z,47.60
2019-02-26T11:06:59.108Z,55.13
2019-02-26T11:09:31.437Z,67.80
2019-02-26T11:12:02.901Z,71.77
2019-02-26T11:14:35.651Z,78.47
2019-02-26T11:17:03.988Z,74.07
2019-02-26T11:19:36.677Z,48.00
2019-02-26T11:22:05.146Z,44.73
2019-02-26T11:24:36.162Z,56.10
2019-02-26T11:27:06.169Z,34.30
2019-02-26T11:29:37.794Z,67.30
2019-02-26T11:32:09.728Z,36.27
2019-02-26T11:34:38.809Z,60.43
2019-02-26T11:37:08.948Z,61.90
2019-02-26T11:39:39.030Z,40.50
2019-02-26T11:42:10.452Z,39.27
2019-02-26T11:44:40.311Z,30.27
2019-02-26T11:47:11.213Z,58.53
2019-02-26T11:49:44.127Z,65.37
2019-02-26T11:52:13.407Z,62.90
2019-02-26T11:54:44.654Z,47.90
2019-02-26T11:57:15.388Z,42.77
2019-02-26T11:59:46.156Z,37.47
2019-02-26T12:02:24.976Z,60.57
2019-02-26T12:04:47.487Z,52.73
2019-02-26T12:07:17.271Z,57.23
2019-02-26T12:09:47.007Z,45.00
2019-02-26T12:12:16.726Z,50.47
2019-02-26T12:14:48.534Z,44.23
2019-02-26T12:17:17.685Z,43.37
2019-02-26T12:19:48.619Z,53.43
2019-02-26T12:22:20.495Z,51.67
2019-02-26T12:24:53.067Z,65.30
2019-02-26T12:27:23.647Z,63.33
2019-02-26T12:29:54.499Z,60.40
2019-02-26T12:32:26.836Z,31.27
2019-02-26T12:34:55.769Z,61.53
2019-02-26T12:37:25.532Z,57.57
2019-02-26T12:39:57.754Z,55.07
2019-02-26T12:42:27.324Z,32.70
2019-02-26T12:44:58.240Z,40.43
2019-02-26T12:47:28.469Z,42.57
2019-02-26T12:49:58.646Z,54.87
2019-02-26T12:52:30.386Z,57.23
2019-02-26T12:55:03.637Z,35.67
2019-02-26T12:57:31.885Z,57.23
2019-02-26T13:00:01.680Z,36.60
2019-02-26T13:02:31.438Z,38.33
2019-02-26T13:05:01.089Z,36.43
2019-02-26T13:07:30.984Z,39.43
2019-02-26T13:10:03.622Z,44.17
2019-02-26T13:12:32.566Z,35.10
2019-02-26T13:15:05.764Z,60.47
2019-02-26T13:17:34.399Z,56.00
2019-02-26T13:20:11.068Z,42.47
2019-02-26T13:22:37.879Z,41.83
2019-02-26T13:25:17.003Z,49.47
2019-02-26T13:27:43.668Z,40.37
2019-02-26T13:30:18.827Z,55.47
2019-02-26T13:33:00.502Z,57.53
2019-02-26T13:35:20.561Z,59.73
2019-02-26T13:37:52.167Z,47.33
2019-02-26T13:40:23.542Z,58.10
2019-02-26T13:45:26.201Z,59.13
2019-02-26T13:48:01.033Z,58.57
2019-02-26T13:50:32.304Z,63.17
2019-02-26T13:53:02.118Z,58.47
2019-02-26T13:55:31.881Z,75.33
2019-02-26T13:58:04.766Z,68.30
2019-02-26T14:00:32.953Z,64.27
2019-02-26T14:03:04.193Z,57.93
2019-02-26T14:05:38.190Z,63.80
2019-02-26T14:08:05.388Z,66.33
2019-02-26T14:10:35.341Z,71.17
2019-02-26T14:13:05.162Z,54.77
2019-02-26T14:15:34.918Z,43.30
2019-02-26T14:18:04.787Z,64.97
2019-02-26T14:20:34.895Z,49.70
2019-02-26T14:23:04.715Z,39.63
2019-02-26T14:25:34.428Z,34.83
2019-02-26T14:28:04.233Z,64.47
2019-02-26T14:30:34.023Z,63.37
2019-02-26T14:33:03.735Z,64.00
2019-02-26T14:35:33.455Z,64.70
2019-02-26T14:38:03.579Z,67.87
2019-02-26T14:40:33.795Z,70.13
2019-02-26T14:43:03.587Z,61.83
2019-02-26T14:45:33.362Z,61.93
2019-02-26T14:48:03.102Z,47.87
2019-02-26T14:50:33.183Z,70.63
2019-02-26T14:53:03.166Z,67.03
2019-02-26T14:55:32.936Z,74.70
2019-02-26T14:58:02.690Z,68.10
2019-02-26T15:00:34.813Z,63.67
2019-02-26T15:03:04.519Z,68.17
2019-02-26T15:05:34.225Z,62.10
2019-02-26T15:08:03.942Z,74.80
2019-02-26T15:10:33.806Z,82.30
2019-02-26T15:13:03.591Z,70.53
2019-02-26T15:15:33.410Z,70.93
2019-02-26T15:18:03.146Z,71.23
2019-02-26T15:20:33.157Z,75.13
2019-02-26T15:23:03.572Z,72.33
2019-02-26T15:25:33.549Z,73.83
2019-02-26T15:28:05.347Z,73.80
2019-02-26T15:30:34.853Z,70.87
2019-02-26T15:33:10.781Z,74.77
2019-02-26T15:35:35.902Z,70.23
2019-02-26T15:38:06.036Z,73.93
2019-02-26T15:40:35.847Z,71.43
2019-02-26T15:43:05.569Z,70.33
2019-02-26T15:45:35.578Z,68.80
2019-02-26T15:48:05.284Z,62.10
2019-02-26T15:50:37.735Z,70.93
2019-02-26T15:53:07.362Z,61.53
2019-02-26T15:55:59.192Z,67.33
2019-02-26T15:58:27.689Z,70.80
2019-02-26T16:00:57.829Z,73.63
2019-02-26T16:03:29.599Z,65.43
2019-02-26T16:05:58.923Z,68.40
2019-02-26T16:08:34.504Z,64.27
2019-02-26T16:11:00.308Z,55.87
2019-02-26T16:13:30.021Z,68.60
2019-02-26T16:16:00.071Z,72.50
2019-02-26T16:18:30.117Z,72.70
2019-02-26T16:20:59.901Z,77.13
2019-02-26T16:23:29.699Z,79.30
2019-02-26T16:25:59.439Z,68.67
2019-02-26T16:28:29.210Z,78.60
2019-02-26T16:30:58.914Z,72.13
2019-02-26T16:33:28.665Z,74.13
2019-02-26T16:35:58.398Z,71.50
2019-02-26T16:38:28.715Z,78.73
2019-02-26T16:41:00.109Z,78.17
2019-02-26T16:43:33.024Z,76.80
2019-02-26T16:46:03.385Z,73.73
2019-02-26T16:48:36.508Z,80.13
2019-02-26T16:51:06.617Z,85.30
2019-02-26T16:53:36.613Z,76.83
2019-02-26T16:56:07.863Z,66.93
2019-02-26T16:58:38.432Z,85.50
2019-02-26T17:01:09.519Z,78.07
2019-02-26T17:03:39.793Z,76.67
2019-02-26T17:06:10.245Z,81.00
2019-02-26T17:08:40.223Z,75.83
2019-02-26T17:11:13.319Z,87.60
2019-02-26T17:13:44.061Z,75.63
2019-02-26T17:16:14.215Z,81.60
2019-02-26T17:18:44.251Z,82.20
2019-02-26T17:21:14.743Z,78.07
2019-02-26T17:23:44.801Z,77.20
2019-02-26T17:26:15.991Z,77.57
2019-02-26T17:28:45.787Z,78.10
2019-02-26T17:31:15.450Z,79.57
2019-02-26T17:33:46.755Z,72.03
2019-02-26T17:36:16.592Z,55.03
2019-02-26T17:38:46.256Z,55.70
2019-02-26T17:41:15.892Z,55.90
2019-02-26T17:43:45.585Z,74.00
2019-02-26T17:46:15.379Z,64.43
2019-02-26T17:48:45.338Z,73.33
2019-02-26T17:51:18.744Z,59.60
2019-02-26T17:53:46.844Z,83.70
2019-02-26T17:56:16.483Z,81.17
2019-02-26T17:58:46.302Z,83.73
2019-02-26T18:01:16.374Z,78.00
2019-02-26T18:03:46.080Z,78.53
2019-02-26T18:06:16.273Z,78.70
2019-02-26T18:08:46.295Z,83.97
2019-02-26T18:11:15.941Z,78.33
2019-02-26T18:13:45.718Z,84.70
2019-02-26T18:16:15.916Z,84.27
2019-02-26T18:18:45.682Z,67.30
2019-02-26T18:21:15.544Z,94.80
2019-02-26T18:23:45.257Z,79.37
2019-02-26T18:26:17.615Z,84.20
2019-02-26T18:28:47.896Z,66.13
2019-02-26T18:31:26.216Z,81.03
2019-02-26T18:33:50.180Z,86.33
2019-02-26T18:36:20.239Z,72.00
2019-02-26T18:38:50.272Z,49.03
2019-02-26T18:41:20.284Z,53.27
2019-02-26T18:43:50.129Z,75.50
2019-02-26T18:46:20.201Z,76.67
2019-02-26T18:48:50.189Z,70.90
2019-02-26T18:51:19.951Z,76.10
2019-02-26T18:53:49.764Z,53.73
2019-02-26T18:56:22.847Z,35.03
2019-02-26T18:58:52.751Z,76.60
2019-02-26T19:01:22.529Z,74.80
2019-02-26T19:03:52.571Z,44.17
2019-02-26T19:06:24.655Z,54.27
2019-02-26T19:08:54.165Z,34.80
2019-02-26T19:11:25.646Z,39.90
2019-02-26T19:13:55.459Z,34.47
2019-02-26T19:16:25.379Z,44.37
2019-02-26T19:18:55.185Z,41.53
2019-02-26T19:21:24.917Z,42.30
2019-02-26T19:23:57.684Z,40.30
2019-02-26T19:26:28.266Z,48.83
2019-02-26T19:29:06.541Z,46.53
2019-02-26T19:31:37.373Z,47.97
2019-02-26T19:34:46.332Z,45.10
2019-02-26T19:37:12.014Z,62.97
2019-02-26T19:39:41.878Z,63.53
2019-02-26T19:42:11.994Z,48.23
2019-02-26T19:44:41.959Z,40.90
2019-02-26T19:47:11.560Z,42.13
2019-02-26T19:49:42.839Z,40.90
2019-02-26T19:52:13.650Z,50.27
2019-02-26T19:54:59.127Z,43.37
2019-02-26T19:57:32.391Z,60.93
2019-02-26T20:00:02.322Z,60.87
2019-02-26T20:02:32.437Z,63.17
2019-02-26T20:05:02.295Z,62.70
2019-02-26T20:07:32.585Z,80.60
2019-02-26T20:10:03.240Z,73.22
2019-02-26T20:12:33.666Z,67.60
2019-02-26T20:15:03.589Z,62.67
2019-02-26T20:17:35.346Z,78.70
2019-02-26T20:20:07.350Z,62.57
2019-02-26T20:22:37.051Z,68.23
2019-02-26T20:25:11.985Z,69.93
2019-02-26T20:27:41.862Z,60.83
2019-02-26T20:30:22.853Z,51.93
2019-02-26T20:32:52.705Z,63.13
2019-02-26T20:35:23.034Z,64.00
2019-02-26T20:37:52.857Z,68.07
2019-02-26T20:40:23.942Z,75.70
2019-02-26T20:42:53.577Z,65.33
2019-02-26T20:45:24.052Z,68.67
2019-02-26T20:47:54.372Z,71.10
2019-02-26T20:50:24.414Z,66.47
2019-02-26T20:52:54.217Z,73.23
2019-02-26T20:55:29.132Z,68.90
2019-02-26T20:57:58.827Z,65.80
2019-02-26T21:00:28.882Z,71.00
2019-02-26T21:02:59.056Z,75.07
2019-02-26T21:05:28.812Z,65.27
2019-02-26T21:07:59.128Z,70.00
2019-02-26T21:10:28.825Z,71.43
2019-02-26T21:13:01.596Z,72.30
2019-02-26T21:15:32.555Z,71.40
2019-02-26T21:18:03.739Z,74.03
2019-02-26T21:20:33.570Z,75.47
2019-02-26T21:23:03.765Z,71.30
2019-02-26T21:25:34.731Z,76.63
2019-02-26T21:28:05.390Z,82.87
2019-02-26T21:30:35.715Z,72.80
2019-02-26T21:33:05.555Z,71.00
2019-02-26T21:35:35.390Z,72.70
2019-02-26T21:38:05.939Z,82.93
2019-02-26T21:40:37.349Z,72.47
2019-02-26T21:43:07.210Z,74.10
2019-02-26T21:45:37.009Z,70.40
2019-02-26T21:48:06.884Z,68.53
2019-02-26T21:50:36.697Z,71.50
2019-02-26T21:53:06.758Z,70.40
2019-02-26T21:55:43.974Z,82.00
2019-02-26T21:58:07.838Z,71.70
2019-02-26T22:00:39.108Z,68.80
2019-02-26T22:03:09.216Z,77.60
2019-02-26T22:05:39.437Z,75.70
2019-02-26T22:08:09.461Z,73.73
2019-02-26T22:10:40.233Z,55.70
2019-02-26T22:13:10.590Z,69.67
2019-02-26T22:15:42.044Z,64.80
2019-02-26T22:18:12.543Z,74.70
2019-02-26T22:20:42.314Z,74.73
2019-02-26T22:23:12.182Z,77.23
2019-02-26T22:25:42.009Z,73.40
2019-02-26T22:28:14.124Z,75.60
2019-02-26T22:30:44.178Z,69.67
2019-02-26T22:33:13.930Z,79.03
2019-02-26T22:35:43.794Z,71.00
2019-02-26T22:38:15.455Z,83.40
2019-02-26T22:40:45.176Z,65.23
2019-02-26T22:43:15.217Z,70.93
2019-02-26T22:45:44.983Z,81.70
2019-02-26T22:48:14.684Z,89.20
2019-02-26T22:50:44.946Z,82.67
2019-02-26T22:53:14.870Z,84.80
2019-02-26T22:55:45.040Z,84.17
2019-02-26T22:58:14.827Z,88.90
2019-02-26T23:00:54.812Z,88.97
2019-02-26T23:03:24.610Z,66.77
2019-02-26T23:05:58.735Z,94.63
2019-02-26T23:08:25.860Z,83.27
2019-02-26T23:10:57.502Z,90.77
2019-02-26T23:13:31.530Z,88.00
2019-02-26T23:15:58.460Z,74.40
2019-02-26T23:18:31.057Z,93.30
2019-02-26T23:21:00.528Z,86.40
2019-02-26T23:23:30.219Z,89.23
2019-02-26T23:26:00.043Z,85.70
2019-02-26T23:28:29.830Z,78.23
2019-02-26T23:31:00.331Z,80.03
2019-02-26T23:33:30.256Z,90.47
2019-02-26T23:36:00.062Z,85.63
2019-02-26T23:38:29.807Z,89.40
2019-02-26T23:41:00.379Z,85.63
2019-02-26T23:43:30.659Z,81.83
2019-02-26T23:46:00.621Z,83.27
2019-02-26T23:48:30.575Z,81.40
2019-02-26T23:51:00.388Z,67.13
2019-02-26T23:53:33.886Z,61.63
2019-02-26T23:56:01.363Z,81.43
2019-02-26T23:58:31.671Z,86.00
